createdAt,value
2023-05-16T00:00:40.454Z,51.99
2023-05-16T00:01:40.447Z,57.43
2023-05-16T00:02:40.669Z,54.46
2023-05-16T00:03:40.521Z,55.04
2023-05-16T00:04:40.653Z,54.44
2023-05-16T00:05:40.420Z,52.80
2023-05-16T00:06:40.510Z,51.64
2023-05-16T00:07:40.410Z,53.86
2023-05-16T00:08:47.395Z,54.31
2023-05-16T00:09:40.426Z,54.66
2023-05-16T00:10:40.404Z,55.02
2023-05-16T00:11:40.468Z,55.54
2023-05-16T00:12:40.373Z,55.01
2023-05-16T00:13:47.367Z,52.44
2023-05-16T00:14:40.365Z,54.74
2023-05-16T00:15:40.351Z,55.21
2023-05-16T00:16:40.382Z,55.55
2023-05-16T00:17:40.397Z,54.14
2023-05-16T00:18:40.366Z,54.91
2023-05-16T00:19:40.309Z,52.50
2023-05-16T00:20:40.334Z,53.72
2023-05-16T00:21:40.280Z,54.72
2023-05-16T00:22:40.277Z,52.24
2023-05-16T00:23:40.287Z,53.92
2023-05-16T00:24:40.297Z,53.63
2023-05-16T00:25:40.278Z,52.73
2023-05-16T00:26:40.251Z,53.04
2023-05-16T00:27:40.243Z,53.69
2023-05-16T00:28:40.271Z,52.86
2023-05-16T00:29:40.237Z,52.63
2023-05-16T00:30:40.244Z,54.99
2023-05-16T00:31:40.278Z,52.43
2023-05-16T00:32:40.281Z,50.39
2023-05-16T00:33:47.235Z,53.47
2023-05-16T00:34:40.272Z,53.80
2023-05-16T00:35:40.230Z,54.32
2023-05-16T00:36:40.209Z,53.54
2023-05-16T00:37:40.253Z,54.78
2023-05-16T00:38:40.181Z,53.39
2023-05-16T00:39:40.184Z,55.85
2023-05-16T00:40:40.154Z,53.35
2023-05-16T00:41:40.169Z,52.80
2023-05-16T00:42:40.156Z,52.48
2023-05-16T00:43:47.144Z,50.71
2023-05-16T00:44:40.132Z,51.06
2023-05-16T00:45:40.131Z,51.58
2023-05-16T00:46:40.208Z,52.42
2023-05-16T00:47:40.137Z,53.65
2023-05-16T00:48:40.092Z,54.73
2023-05-16T00:49:40.119Z,54.51
2023-05-16T00:50:40.095Z,54.70
2023-05-16T00:51:40.069Z,52.15
2023-05-16T00:52:40.067Z,53.53
2023-05-16T00:53:40.097Z,54.62
2023-05-16T00:54:40.060Z,54.62
2023-05-16T00:55:40.097Z,53.56
2023-05-16T00:56:40.048Z,53.79
2023-05-16T00:57:40.051Z,55.30
2023-05-16T00:58:40.038Z,55.11
2023-05-16T00:59:40.055Z,53.82
2023-05-16T01:00:40.031Z,55.41
2023-05-16T01:01:40.079Z,54.72
2023-05-16T01:02:40.179Z,54.68
2023-05-16T01:03:40.095Z,55.14
2023-05-16T01:04:39.974Z,53.98
2023-05-16T01:05:40.015Z,54.90
2023-05-16T01:06:40.018Z,54.60
2023-05-16T01:07:39.967Z,55.32
2023-05-16T01:08:39.963Z,54.93
2023-05-16T01:09:40.002Z,57.58
2023-05-16T01:10:40.026Z,54.27
2023-05-16T01:11:39.937Z,57.05
2023-05-16T01:12:40.009Z,53.79
2023-05-16T01:13:39.959Z,55.94
2023-05-16T01:14:39.944Z,54.14
2023-05-16T01:15:39.960Z,55.35
2023-05-16T01:16:40.106Z,56.89
2023-05-16T01:17:39.966Z,55.55
2023-05-16T01:18:39.937Z,54.23
2023-05-16T01:19:39.877Z,54.43
2023-05-16T01:20:39.927Z,56.80
2023-05-16T01:21:39.891Z,53.44
2023-05-16T01:22:39.897Z,56.41
2023-05-16T01:23:39.877Z,55.81
2023-05-16T01:24:39.871Z,54.71
2023-05-16T01:25:39.877Z,54.02
2023-05-16T01:26:39.854Z,53.77
2023-05-16T01:27:39.835Z,54.56
2023-05-16T01:28:39.848Z,54.94
2023-05-16T01:29:39.851Z,51.99
2023-05-16T01:30:39.820Z,56.06
2023-05-16T01:31:39.917Z,53.76
2023-05-16T01:32:39.888Z,53.85
2023-05-16T01:33:39.822Z,53.16
2023-05-16T01:34:39.800Z,54.94
2023-05-16T01:35:39.819Z,58.10
2023-05-16T01:36:39.791Z,53.84
2023-05-16T01:37:39.787Z,53.14
2023-05-16T01:38:39.783Z,53.48
2023-05-16T01:39:39.760Z,54.18
2023-05-16T01:40:39.770Z,53.80
2023-05-16T01:41:39.766Z,52.74
2023-05-16T01:42:39.747Z,53.56
2023-05-16T01:43:39.751Z,56.55
2023-05-16T01:44:39.728Z,54.10
2023-05-16T01:45:39.740Z,53.80
2023-05-16T01:46:39.744Z,52.87
2023-05-16T01:47:39.738Z,56.77
2023-05-16T01:48:39.743Z,53.43
2023-05-16T01:49:39.704Z,55.99
2023-05-16T01:50:39.716Z,53.41
2023-05-16T01:51:39.716Z,53.53
2023-05-16T01:52:39.717Z,55.19
2023-05-16T01:53:39.744Z,54.22
2023-05-16T01:54:39.772Z,54.73
2023-05-16T01:55:39.784Z,51.42
2023-05-16T01:56:39.807Z,55.57
2023-05-16T01:57:39.804Z,54.03
2023-05-16T01:58:39.842Z,53.23
2023-05-16T01:59:39.842Z,54.00
2023-05-16T02:00:39.841Z,52.93
2023-05-16T02:01:39.917Z,53.34
2023-05-16T02:02:39.900Z,54.14
2023-05-16T02:03:39.948Z,50.70
2023-05-16T02:04:39.877Z,55.01
2023-05-16T02:05:39.912Z,51.53
2023-05-16T02:06:39.912Z,53.75
2023-05-16T02:07:39.984Z,53.99
2023-05-16T02:08:39.900Z,52.66
2023-05-16T02:09:39.927Z,53.70
2023-05-16T02:10:39.976Z,53.78
2023-05-16T02:11:40.003Z,52.32
2023-05-16T02:12:40.011Z,51.51
2023-05-16T02:13:40.038Z,53.18
2023-05-16T02:14:40.050Z,52.77
2023-05-16T02:15:40.050Z,53.35
2023-05-16T02:16:40.156Z,53.62
2023-05-16T02:17:40.094Z,52.52
2023-05-16T02:18:40.136Z,53.09
2023-05-16T02:19:40.092Z,53.86
2023-05-16T02:20:40.129Z,52.95
2023-05-16T02:21:40.136Z,54.17
2023-05-16T02:22:40.141Z,53.89
2023-05-16T02:23:40.147Z,53.96
2023-05-16T02:24:40.144Z,51.59
2023-05-16T02:25:40.170Z,53.45
2023-05-16T02:26:40.219Z,51.74
2023-05-16T02:27:40.221Z,54.69
2023-05-16T02:28:40.225Z,53.96
2023-05-16T02:29:40.287Z,54.34
2023-05-16T02:30:40.300Z,53.02
2023-05-16T02:31:40.364Z,54.84
2023-05-16T02:32:40.323Z,53.51
2023-05-16T02:33:40.285Z,53.02
2023-05-16T02:34:40.328Z,53.97
2023-05-16T02:35:40.328Z,56.15
2023-05-16T02:36:40.388Z,54.24
2023-05-16T02:37:40.409Z,53.69
2023-05-16T02:38:40.446Z,56.30
2023-05-16T02:39:40.494Z,53.18
2023-05-16T02:40:40.467Z,53.83
2023-05-16T02:41:40.486Z,53.15
2023-05-16T02:42:40.538Z,55.64
2023-05-16T02:43:40.546Z,54.84
2023-05-16T02:44:40.575Z,54.31
2023-05-16T02:45:40.599Z,52.99
2023-05-16T02:46:40.716Z,53.07
2023-05-16T02:47:40.658Z,53.42
2023-05-16T02:48:40.597Z,53.48
2023-05-16T02:49:40.644Z,54.72
2023-05-16T02:50:40.677Z,52.63
2023-05-16T02:51:40.687Z,53.90
2023-05-16T02:52:40.697Z,53.70
2023-05-16T02:53:40.734Z,53.28
2023-05-16T02:54:40.741Z,53.76
2023-05-16T02:55:40.880Z,54.76
2023-05-16T02:56:40.793Z,54.06
2023-05-16T02:57:40.811Z,54.66
2023-05-16T02:58:40.808Z,53.46
2023-05-16T02:59:40.817Z,52.26
2023-05-16T03:00:40.813Z,55.26
2023-05-16T03:01:40.949Z,53.13
2023-05-16T03:02:40.947Z,53.15
2023-05-16T03:03:40.932Z,53.41
2023-05-16T03:04:40.908Z,56.16
2023-05-16T03:05:40.941Z,54.42
2023-05-16T03:06:40.943Z,54.34
2023-05-16T03:07:40.986Z,55.33
2023-05-16T03:08:40.959Z,55.18
2023-05-16T03:09:40.978Z,54.77
2023-05-16T03:10:41.018Z,54.72
2023-05-16T03:11:41.021Z,54.05
2023-05-16T03:12:41.063Z,53.68
2023-05-16T03:13:41.072Z,57.33
2023-05-16T03:14:41.083Z,53.61
2023-05-16T03:15:41.122Z,55.71
2023-05-16T03:16:41.202Z,56.28
2023-05-16T03:17:41.185Z,53.20
2023-05-16T03:18:41.197Z,55.05
2023-05-16T03:19:41.198Z,53.61
2023-05-16T03:20:41.196Z,55.12
2023-05-16T03:21:41.228Z,55.33
2023-05-16T03:22:41.240Z,54.76
2023-05-16T03:23:41.249Z,53.90
2023-05-16T03:24:41.351Z,55.87
2023-05-16T03:25:41.315Z,56.00
2023-05-16T03:26:41.328Z,54.55
2023-05-16T03:27:41.343Z,55.20
2023-05-16T03:28:41.361Z,54.57
2023-05-16T03:29:41.367Z,54.55
2023-05-16T03:30:41.400Z,55.88
2023-05-16T03:31:41.461Z,53.56
2023-05-16T03:32:41.565Z,52.57
2023-05-16T03:33:41.452Z,55.30
2023-05-16T03:34:41.479Z,51.84
2023-05-16T03:35:41.511Z,54.64
2023-05-16T03:36:41.515Z,56.38
2023-05-16T03:37:41.521Z,53.67
2023-05-16T03:38:41.556Z,53.40
2023-05-16T03:39:41.553Z,53.79
2023-05-16T03:40:41.598Z,53.29
2023-05-16T03:41:41.581Z,55.82
2023-05-16T03:42:41.633Z,53.58
2023-05-16T03:43:41.632Z,54.71
2023-05-16T03:44:41.625Z,55.72
2023-05-16T03:45:41.732Z,55.12
2023-05-16T03:46:41.679Z,54.25
2023-05-16T03:47:41.709Z,54.58
2023-05-16T03:48:41.724Z,55.27
2023-05-16T03:49:41.725Z,53.51
2023-05-16T03:50:41.741Z,53.63
2023-05-16T03:51:41.781Z,54.16
2023-05-16T03:52:41.792Z,55.14
2023-05-16T03:53:41.809Z,53.95
2023-05-16T03:54:41.818Z,55.44
2023-05-16T03:55:41.839Z,56.31
2023-05-16T03:56:41.855Z,54.79
2023-05-16T03:57:41.908Z,54.06
2023-05-16T03:58:41.909Z,55.15
2023-05-16T03:59:41.945Z,53.25
2023-05-16T04:00:41.954Z,55.14
2023-05-16T04:01:42.000Z,55.15
2023-05-16T04:02:42.123Z,54.69
2023-05-16T04:03:42.023Z,52.41
2023-05-16T04:04:42.039Z,57.81
2023-05-16T04:05:42.170Z,55.49
2023-05-16T04:06:42.094Z,54.27
2023-05-16T04:07:42.145Z,53.68
2023-05-16T04:08:42.192Z,56.17
2023-05-16T04:09:42.217Z,53.39
2023-05-16T04:10:42.247Z,54.13
2023-05-16T04:11:42.254Z,55.11
2023-05-16T04:12:42.272Z,54.08
2023-05-16T04:13:42.290Z,55.65
2023-05-16T04:14:42.336Z,53.57
2023-05-16T04:15:42.333Z,55.57
2023-05-16T04:16:42.418Z,56.18
2023-05-16T04:17:42.439Z,54.73
2023-05-16T04:18:42.440Z,56.99
2023-05-16T04:19:42.466Z,56.18
2023-05-16T04:20:42.448Z,56.00
2023-05-16T04:21:42.484Z,54.34
2023-05-16T04:22:42.530Z,53.86
2023-05-16T04:23:42.551Z,54.03
2023-05-16T04:24:42.586Z,55.10
2023-05-16T04:25:42.622Z,55.37
2023-05-16T04:26:42.639Z,52.86
2023-05-16T04:27:42.662Z,55.20
2023-05-16T04:28:42.668Z,54.08
2023-05-16T04:29:42.687Z,54.82
2023-05-16T04:30:42.740Z,53.85
2023-05-16T04:31:42.777Z,57.01
2023-05-16T04:32:42.755Z,55.52
2023-05-16T04:33:42.787Z,55.32
2023-05-16T04:34:42.800Z,54.46
2023-05-16T04:35:42.799Z,54.33
2023-05-16T04:36:42.841Z,54.53
2023-05-16T04:37:42.871Z,53.52
2023-05-16T04:38:42.915Z,52.89
2023-05-16T04:39:42.940Z,54.72
2023-05-16T04:40:42.963Z,54.48
2023-05-16T04:41:42.949Z,54.97
2023-05-16T04:42:43.047Z,56.11
2023-05-16T04:43:42.989Z,56.51
2023-05-16T04:44:43.004Z,56.09
2023-05-16T04:45:43.058Z,55.05
2023-05-16T04:46:43.076Z,54.79
2023-05-16T04:47:43.123Z,52.34
2023-05-16T04:48:43.115Z,55.63
2023-05-16T04:49:43.126Z,54.02
2023-05-16T04:50:43.166Z,54.77
2023-05-16T04:51:43.152Z,56.85
2023-05-16T04:52:43.214Z,56.18
2023-05-16T04:53:43.202Z,56.20
2023-05-16T04:54:43.258Z,58.98
2023-05-16T04:55:43.291Z,56.25
2023-05-16T04:56:43.290Z,58.73
2023-05-16T04:57:43.357Z,58.39
2023-05-16T04:58:43.357Z,57.93
2023-05-16T04:59:43.404Z,58.14
2023-05-16T05:00:43.418Z,57.44
2023-05-16T05:01:43.496Z,58.33
2023-05-16T05:02:43.511Z,59.10
2023-05-16T05:03:44.058Z,58.45
2023-05-16T05:04:43.537Z,56.26
2023-05-16T05:05:43.541Z,55.55
2023-05-16T05:06:43.565Z,56.87
2023-05-16T05:07:43.589Z,60.00
2023-05-16T05:08:43.630Z,57.24
2023-05-16T05:09:43.677Z,56.41
2023-05-16T05:10:43.692Z,57.77
2023-05-16T05:11:43.782Z,59.08
2023-05-16T05:12:45.128Z,57.84
2023-05-16T05:13:43.745Z,59.33
2023-05-16T05:14:43.796Z,57.39
2023-05-16T05:15:43.926Z,57.76
2023-05-16T05:16:43.852Z,57.18
2023-05-16T05:17:43.961Z,56.39
2023-05-16T05:18:44.009Z,58.23
2023-05-16T05:19:44.071Z,59.74
2023-05-16T05:20:43.948Z,57.04
2023-05-16T05:21:43.995Z,60.21
2023-05-16T05:22:44.030Z,59.34
2023-05-16T05:23:44.081Z,61.35
2023-05-16T05:24:44.090Z,60.50
2023-05-16T05:25:44.150Z,59.76
2023-05-16T05:26:44.125Z,60.94
2023-05-16T05:27:44.181Z,59.33
2023-05-16T05:29:44.195Z,60.27
2023-05-16T05:30:44.277Z,61.52
2023-05-16T05:31:44.326Z,60.93
2023-05-16T05:32:44.335Z,59.42
2023-05-16T05:33:44.354Z,60.81
2023-05-16T05:34:44.387Z,57.39
2023-05-16T05:35:44.696Z,62.44
2023-05-16T05:36:44.400Z,62.12
2023-05-16T05:37:44.483Z,61.57
2023-05-16T05:38:44.460Z,67.37
2023-05-16T05:39:44.481Z,71.94
2023-05-16T07:45:11.017Z,50.00
2023-05-16T07:46:11.047Z,50.00
2023-05-16T07:47:10.977Z,50.00
2023-05-16T07:48:11.013Z,50.00
2023-05-16T07:49:10.938Z,50.00
2023-05-16T07:50:10.949Z,18.95
2023-05-16T07:51:10.985Z,0.00
2023-05-16T07:52:10.937Z,0.00
2023-05-16T07:53:10.910Z,0.00
2023-05-16T07:54:10.944Z,0.00
2023-05-16T07:55:10.920Z,0.00
2023-05-16T07:56:10.926Z,0.00
2023-05-16T07:57:10.913Z,0.00
2023-05-16T07:58:10.913Z,0.00
2023-05-16T07:59:10.901Z,11.44
2023-05-16T08:00:10.876Z,23.55
2023-05-16T08:01:10.919Z,36.27
2023-05-16T08:02:10.901Z,49.86
2023-05-16T08:03:10.998Z,50.25
2023-05-16T08:04:10.854Z,50.00
2023-05-16T08:05:10.992Z,50.39
2023-05-16T08:06:10.999Z,50.00
2023-05-16T08:07:10.831Z,48.30
2023-05-16T08:08:10.835Z,50.00
2023-05-16T08:09:10.803Z,50.90
2023-05-16T08:10:13.322Z,50.00
2023-05-16T08:11:10.792Z,51.11
2023-05-16T08:12:10.852Z,50.00
2023-05-16T08:13:10.797Z,41.56
2023-05-16T08:14:10.779Z,33.62
2023-05-16T08:15:10.784Z,33.36
2023-05-16T08:16:10.829Z,39.00
2023-05-16T08:17:10.763Z,44.26
2023-05-16T08:18:10.796Z,45.64
2023-05-16T08:19:10.882Z,51.55
2023-05-16T08:20:10.804Z,50.11
2023-05-16T08:21:10.735Z,49.96
2023-05-16T08:22:10.797Z,50.00
2023-05-16T08:23:10.752Z,56.45
2023-05-16T08:24:10.738Z,50.34
2023-05-16T08:25:10.742Z,50.00
2023-05-16T08:26:10.737Z,55.17
2023-05-16T08:27:10.741Z,50.00
2023-05-16T08:28:10.703Z,51.45
2023-05-16T08:29:10.710Z,63.83
2023-05-16T08:30:10.693Z,71.09
2023-05-16T08:31:10.754Z,74.95
2023-05-16T08:32:10.657Z,76.18
2023-05-16T08:33:10.769Z,76.40
2023-05-16T08:34:10.635Z,78.83
2023-05-16T08:35:10.632Z,77.96
2023-05-16T08:36:10.681Z,77.43
2023-05-16T08:37:10.670Z,84.13
2023-05-16T08:38:10.634Z,85.68
2023-05-16T08:39:10.728Z,89.27
2023-05-16T08:40:10.865Z,89.96
2023-05-16T08:41:10.601Z,96.32
2023-05-16T08:42:10.591Z,96.79
2023-05-16T08:43:10.596Z,98.81
2023-05-16T08:44:11.202Z,105.76
2023-05-16T08:45:10.567Z,111.76
2023-05-16T08:46:10.603Z,121.90
2023-05-16T08:47:10.659Z,127.45
2023-05-16T08:48:10.734Z,131.83
2023-05-16T08:49:10.633Z,142.03
2023-05-16T08:50:10.652Z,152.29
2023-05-16T08:51:10.555Z,159.48
2023-05-16T08:52:10.534Z,162.21
2023-05-16T08:53:10.508Z,154.23
2023-05-16T08:54:10.512Z,124.60
2023-05-16T08:55:11.853Z,103.76
2023-05-16T08:56:10.539Z,97.94
2023-05-16T08:57:10.540Z,102.44
2023-05-16T08:58:10.581Z,100.47
2023-05-16T08:59:10.628Z,104.68
2023-05-16T09:00:10.654Z,104.91
2023-05-16T09:01:10.759Z,105.63
2023-05-16T09:02:10.778Z,100.92
2023-05-16T09:03:10.862Z,92.07
2023-05-16T09:04:10.876Z,88.68
2023-05-16T09:05:10.895Z,91.76
2023-05-16T09:06:10.969Z,74.33
2023-05-16T09:07:11.003Z,55.61
2023-05-16T09:08:11.020Z,54.92
2023-05-16T09:09:11.094Z,50.17
2023-05-16T09:10:11.179Z,52.73
2023-05-16T09:11:11.226Z,52.72
2023-05-16T09:12:11.227Z,53.61
2023-05-16T09:13:11.330Z,53.48
2023-05-16T09:14:12.175Z,50.86
2023-05-16T09:15:11.434Z,51.36
2023-05-16T09:16:11.532Z,49.85
2023-05-16T09:17:12.622Z,50.00
2023-05-16T09:18:11.608Z,50.00
2023-05-16T09:19:11.639Z,58.38
2023-05-16T09:20:11.594Z,51.96
2023-05-16T09:21:11.631Z,50.00
2023-05-16T09:22:11.627Z,52.29
2023-05-16T09:23:11.611Z,50.00
2023-05-16T09:24:11.627Z,50.00
2023-05-16T09:25:21.784Z,53.46
2023-05-16T09:26:12.655Z,49.33
2023-05-16T09:27:11.656Z,46.33
2023-05-16T09:28:11.669Z,47.94
2023-05-16T09:29:11.665Z,51.12
2023-05-16T09:30:11.613Z,45.95
2023-05-16T09:31:11.690Z,59.93
2023-05-16T09:32:11.613Z,51.87
2023-05-16T09:33:11.671Z,50.00
2023-05-16T09:34:11.606Z,55.32
2023-05-16T09:35:11.631Z,55.77
2023-05-16T09:36:11.601Z,60.45
2023-05-16T09:37:11.626Z,68.10
2023-05-16T09:38:11.578Z,65.53
2023-05-16T09:39:11.553Z,69.77
2023-05-16T09:40:11.598Z,75.97
2023-05-16T09:41:11.641Z,91.23
2023-05-16T09:42:11.706Z,105.44
2023-05-16T09:43:11.667Z,116.09
2023-05-16T09:44:11.735Z,123.54
2023-05-16T09:45:11.739Z,134.78
2023-05-16T09:46:11.747Z,143.63
2023-05-16T09:47:11.784Z,145.83
2023-05-16T09:48:11.833Z,147.52
2023-05-16T09:49:11.780Z,154.91
2023-05-16T09:50:11.859Z,159.60
2023-05-16T09:51:11.857Z,169.90
2023-05-16T09:52:11.837Z,176.11
2023-05-16T09:53:11.881Z,179.53
2023-05-16T09:54:11.881Z,182.34
2023-05-16T09:55:11.975Z,188.29
2023-05-16T09:56:11.997Z,189.01
2023-05-16T09:57:12.053Z,193.23
2023-05-16T09:58:12.116Z,196.41
2023-05-16T09:59:12.132Z,198.37
2023-05-16T10:00:12.194Z,200.00
2023-05-16T10:01:12.224Z,198.65
2023-05-16T10:02:12.331Z,198.26
2023-05-16T10:03:12.427Z,197.11
2023-05-16T10:04:12.517Z,199.62
2023-05-16T10:05:12.444Z,199.26
2023-05-16T10:06:12.671Z,200.00
2023-05-16T10:07:12.529Z,199.52
2023-05-16T10:08:12.587Z,199.72
2023-05-16T10:09:12.634Z,198.09
2023-05-16T10:10:12.646Z,199.99
2023-05-16T10:11:12.681Z,197.56
2023-05-16T10:12:13.736Z,198.65
2023-05-16T10:13:12.790Z,199.30
2023-05-16T10:14:12.782Z,198.39
2023-05-16T10:15:12.838Z,197.58
2023-05-16T10:16:13.019Z,198.32
2023-05-16T10:17:12.908Z,199.89
2023-05-16T10:18:12.983Z,199.74
2023-05-16T10:19:12.964Z,198.70
2023-05-16T10:20:13.018Z,199.27
2023-05-16T10:21:13.043Z,198.80
2023-05-16T10:22:13.089Z,200.00
2023-05-16T10:23:13.082Z,196.74
2023-05-16T10:24:13.149Z,181.93
2023-05-16T10:25:13.212Z,154.09
2023-05-16T10:26:13.225Z,138.84
2023-05-16T10:27:13.220Z,125.22
2023-05-16T10:28:13.257Z,114.82
2023-05-16T10:29:13.261Z,109.66
2023-05-16T10:30:13.316Z,109.33
2023-05-16T10:31:13.341Z,107.17
2023-05-16T10:32:13.348Z,103.98
2023-05-16T10:33:13.494Z,100.16
2023-05-16T10:34:13.460Z,100.03
2023-05-16T10:35:13.533Z,96.59
2023-05-16T10:36:13.586Z,95.73
2023-05-16T10:37:13.586Z,98.28
2023-05-16T10:58:27.158Z,50.00
2023-05-16T10:59:26.959Z,50.00
2023-05-16T11:00:26.967Z,50.00
2023-05-16T11:01:27.031Z,50.00
2023-05-16T11:02:27.055Z,50.00
2023-05-16T11:03:27.009Z,45.72
2023-05-16T11:04:26.939Z,46.05
2023-05-16T11:05:27.288Z,50.08
2023-05-16T11:06:26.942Z,50.00
2023-05-16T11:07:26.948Z,51.61
2023-05-16T11:08:26.882Z,50.02
2023-05-16T11:09:26.896Z,50.00
2023-05-16T11:10:26.880Z,50.00
2023-05-16T11:11:26.868Z,52.24
2023-05-16T11:12:26.880Z,50.00
2023-05-16T11:13:26.865Z,51.42
2023-05-16T11:14:26.866Z,50.81
2023-05-16T11:15:27.125Z,50.00
2023-05-16T11:16:26.861Z,52.81
2023-05-16T11:17:27.172Z,54.84
2023-05-16T11:18:26.860Z,55.63
2023-05-16T11:19:26.816Z,55.68
2023-05-16T11:20:26.833Z,57.01
2023-05-16T11:21:26.814Z,56.76
2023-05-16T11:22:26.819Z,58.43
2023-05-16T11:23:26.800Z,62.47
2023-05-16T11:24:26.792Z,64.41
2023-05-16T11:25:26.894Z,65.48
2023-05-16T11:26:26.783Z,69.10
2023-05-16T11:27:26.766Z,70.11
2023-05-16T11:28:26.761Z,69.60
2023-05-16T11:29:26.738Z,72.89
2023-05-16T11:30:26.830Z,70.37
2023-05-16T11:31:26.764Z,75.79
2023-05-16T11:32:26.897Z,77.72
2023-05-16T11:33:26.814Z,77.84
2023-05-16T11:34:26.692Z,79.86
2023-05-16T11:35:26.790Z,81.10
2023-05-16T11:36:26.720Z,82.88
2023-05-16T11:37:26.693Z,82.51
2023-05-16T11:38:26.678Z,83.82
2023-05-16T11:39:26.716Z,82.52
2023-05-16T11:40:33.690Z,83.53
2023-05-16T11:41:26.662Z,83.81
2023-05-16T11:42:26.647Z,83.89
2023-05-16T11:43:26.652Z,84.30
2023-05-16T11:44:26.628Z,83.54
2023-05-16T11:45:26.790Z,83.22
2023-05-16T11:46:26.695Z,83.67
2023-05-16T11:47:26.654Z,84.21
2023-05-16T11:48:35.564Z,83.32
2023-05-16T11:49:27.582Z,83.46
2023-05-16T11:50:26.631Z,83.41
2023-05-16T11:51:26.633Z,81.87
2023-05-16T11:52:26.580Z,78.45
2023-05-16T11:53:26.595Z,78.76
2023-05-16T11:54:26.568Z,80.17
2023-05-16T11:55:40.377Z,81.34
2023-05-16T11:56:27.563Z,81.42
2023-05-16T11:57:26.554Z,81.45
2023-05-16T11:58:26.529Z,79.74
2023-05-16T11:59:26.752Z,76.48
2023-05-16T12:04:18.474Z,50.00
2023-05-16T12:05:18.172Z,50.00
2023-05-16T12:06:18.112Z,50.00
2023-05-16T12:07:18.132Z,50.00
2023-05-16T12:08:18.111Z,50.00
2023-05-16T12:09:18.690Z,40.58
2023-05-16T12:10:18.097Z,31.18
2023-05-16T12:11:18.081Z,39.09
2023-05-16T12:12:18.068Z,43.16
2023-05-16T12:13:20.020Z,50.00
2023-05-16T12:14:18.120Z,45.25
2023-05-16T12:15:18.169Z,31.03
2023-05-16T12:16:18.244Z,25.45
2023-05-16T12:17:18.287Z,19.94
2023-05-16T12:18:18.256Z,36.01
2023-05-16T12:19:18.311Z,50.54
2023-05-16T12:20:18.384Z,51.23
2023-05-16T12:21:18.369Z,59.36
2023-05-16T12:22:18.360Z,52.90
2023-05-16T12:23:18.440Z,53.16
2023-05-16T12:24:18.431Z,47.84
2023-05-16T12:25:18.460Z,50.23
2023-05-16T12:26:18.524Z,50.00
2023-05-16T12:27:18.578Z,49.88
2023-05-16T12:28:18.596Z,50.00
2023-05-16T12:29:18.691Z,50.00
2023-05-16T12:30:19.286Z,50.21
2023-05-16T12:31:29.972Z,50.00
2023-05-16T12:32:19.754Z,46.92
2023-05-16T12:33:25.759Z,44.84
2023-05-16T12:34:19.354Z,43.89
2023-05-16T12:35:18.726Z,31.57
2023-05-16T12:36:18.815Z,13.47
2023-05-16T12:37:18.665Z,0.00
2023-05-16T12:38:18.680Z,0.00
2023-05-16T12:39:18.652Z,4.82
2023-05-16T12:40:18.659Z,31.44
2023-05-16T12:41:18.672Z,54.33
2023-05-16T12:42:18.636Z,49.03
2023-05-16T12:43:18.644Z,50.00
2023-05-16T12:44:18.644Z,58.98
2023-05-16T12:45:25.628Z,50.00
2023-05-16T12:46:18.714Z,46.86
2023-05-16T12:47:18.621Z,46.84
2023-05-16T12:48:18.686Z,42.30
2023-05-16T12:49:18.585Z,44.68
2023-05-16T12:50:18.584Z,35.04
2023-05-16T12:51:18.614Z,65.89
2023-05-16T12:52:18.624Z,87.55
2023-05-16T12:53:18.567Z,102.38
2023-05-16T12:54:18.565Z,111.13
2023-05-16T12:55:18.572Z,121.28
2023-05-16T12:56:18.559Z,128.75
2023-05-16T12:57:18.551Z,142.30
2023-05-16T12:58:18.597Z,153.15
2023-05-16T12:59:18.507Z,161.43
2023-05-16T13:00:28.504Z,166.64
2023-05-16T13:01:18.546Z,167.13
2023-05-16T13:02:18.504Z,168.57
2023-05-16T13:03:18.565Z,170.74
2023-05-16T13:04:18.549Z,177.11
2023-05-16T13:05:18.464Z,183.52
2023-05-16T13:06:18.474Z,187.30
2023-05-16T13:07:18.486Z,184.55
2023-05-16T13:08:18.532Z,190.86
2023-05-16T13:09:18.464Z,186.29
2023-05-16T13:10:18.471Z,191.45
2023-05-16T13:11:18.447Z,191.70
2023-05-16T13:12:18.429Z,193.65
2023-05-16T13:13:35.466Z,193.03
2023-05-16T13:14:19.455Z,193.50
2023-05-16T13:15:18.422Z,194.46
2023-05-16T13:16:18.478Z,196.24
2023-05-16T13:17:18.417Z,197.87
2023-05-16T13:18:18.458Z,201.93
2023-05-16T13:19:18.589Z,200.00
2023-05-16T13:20:18.366Z,198.99
2023-05-16T13:21:18.386Z,197.34
2023-05-16T13:22:18.379Z,199.66
2023-05-16T13:23:18.347Z,197.83
2023-05-16T13:24:18.461Z,198.54
2023-05-16T13:25:18.368Z,198.14
2023-05-16T13:26:18.341Z,195.87
2023-05-16T13:27:18.318Z,200.03
2023-05-16T13:28:18.304Z,196.82
2023-05-16T13:29:18.330Z,199.33
2023-05-16T13:30:18.278Z,197.69
2023-05-16T13:31:18.321Z,198.28
2023-05-16T13:32:18.313Z,199.13
2023-05-16T13:33:18.337Z,199.45
2023-05-16T13:34:18.318Z,200.00
2023-05-16T13:35:18.275Z,197.96
2023-05-16T13:36:18.232Z,199.62
2023-05-16T13:37:18.266Z,199.00
2023-05-16T13:38:18.250Z,197.66
2023-05-16T13:39:18.309Z,199.17
2023-05-16T13:40:18.310Z,199.33
2023-05-16T13:41:18.218Z,199.28
2023-05-16T13:42:18.214Z,198.41
2023-05-16T13:43:18.258Z,197.44
2023-05-16T13:44:18.186Z,199.05
2023-05-16T13:45:18.194Z,197.11
2023-05-16T13:46:18.321Z,199.24
2023-05-16T13:47:18.241Z,199.35
2023-05-16T13:48:18.271Z,198.79
2023-05-16T13:49:18.162Z,200.00
2023-05-16T13:50:18.187Z,198.66
2023-05-16T13:51:18.893Z,197.49
2023-05-16T13:52:18.183Z,197.68
2023-05-16T13:53:18.154Z,197.71
2023-05-16T13:54:18.146Z,200.00
2023-05-16T13:55:18.152Z,200.00
2023-05-16T13:56:18.410Z,196.80
2023-05-16T13:57:18.161Z,196.96
2023-05-16T13:58:18.119Z,197.50
2023-05-16T13:59:27.482Z,199.25
2023-05-16T14:00:42.727Z,199.41
2023-05-16T14:01:19.106Z,199.55
2023-05-16T14:02:18.082Z,200.41
2023-05-16T14:03:18.275Z,200.68
2023-05-16T14:04:18.232Z,202.47
2023-05-16T14:05:18.090Z,206.19
2023-05-16T14:06:18.078Z,199.34
2023-05-16T14:07:18.057Z,200.00
2023-05-16T14:08:18.070Z,197.55
2023-05-16T14:09:18.018Z,199.25
2023-05-16T14:10:18.046Z,199.83
2023-05-16T14:11:18.024Z,200.00
2023-05-16T14:12:18.179Z,199.62
2023-05-16T14:13:18.015Z,199.97
2023-05-16T14:14:17.987Z,198.68
2023-05-16T14:15:17.979Z,200.00
2023-05-16T14:16:18.060Z,198.54
2023-05-16T14:17:17.987Z,199.28
2023-05-16T14:18:18.014Z,198.33
2023-05-16T14:19:19.547Z,199.32
2023-05-16T14:20:18.027Z,198.68
2023-05-16T14:21:17.965Z,200.38
2023-05-16T14:22:17.932Z,199.61
2023-05-16T14:23:17.974Z,198.44
2023-05-16T14:24:17.955Z,197.67
2023-05-16T14:25:17.947Z,198.97
2023-05-16T14:26:17.920Z,199.35
2023-05-16T14:27:17.929Z,198.29
2023-05-16T14:28:17.935Z,199.36
2023-05-16T14:29:17.927Z,199.33
2023-05-16T14:30:17.923Z,200.00
2023-05-16T14:31:17.918Z,199.44
2023-05-16T14:32:17.999Z,199.50
2023-05-16T14:33:18.010Z,198.14
2023-05-16T14:34:17.879Z,198.93
2023-05-16T14:35:17.862Z,199.81
2023-05-16T14:36:17.858Z,198.50
2023-05-16T14:37:17.855Z,198.68
2023-05-16T14:38:17.859Z,197.62
2023-05-16T14:39:17.816Z,195.65
2023-05-16T14:40:17.865Z,195.06
2023-05-16T14:41:17.837Z,194.84
2023-05-16T14:42:17.832Z,195.20
2023-05-16T14:43:17.788Z,195.97
2023-05-16T14:44:17.880Z,196.50
2023-05-16T14:45:17.803Z,196.59
2023-05-16T14:46:17.931Z,195.64
2023-05-16T14:47:17.813Z,196.74
2023-05-16T14:48:17.840Z,197.20
2023-05-16T14:49:17.773Z,197.93
2023-05-16T14:50:17.761Z,197.95
2023-05-16T14:51:17.765Z,196.48
2023-05-16T14:52:20.915Z,197.39
2023-05-16T14:53:17.770Z,198.14
2023-05-16T14:54:17.743Z,197.21
2023-05-16T14:55:17.772Z,197.78
2023-05-16T14:56:17.752Z,197.96
2023-05-16T14:57:17.741Z,198.09
2023-05-16T14:58:17.748Z,196.79
2023-05-16T14:59:17.719Z,197.17
2023-05-16T15:00:17.706Z,196.18
2023-05-16T15:01:17.732Z,197.20
2023-05-16T15:02:17.763Z,197.83
2023-05-16T15:03:17.684Z,197.43
2023-05-16T15:04:17.690Z,198.06
2023-05-16T15:05:17.722Z,197.22
2023-05-16T15:06:17.638Z,197.90
2023-05-16T15:07:17.640Z,196.90
2023-05-16T15:08:17.685Z,197.79
2023-05-16T15:09:17.650Z,197.99
2023-05-16T15:10:17.630Z,198.01
2023-05-16T15:11:17.619Z,196.34
2023-05-16T15:12:17.636Z,197.52
2023-05-16T15:13:17.597Z,197.81
2023-05-16T15:14:17.628Z,197.16
2023-05-16T15:15:17.612Z,197.68
2023-05-16T15:16:17.739Z,198.27